createdAt,value
2023-03-04T00:02:35.760Z,100.00
2023-03-04T00:05:04.915Z,100.00
2023-03-04T00:07:33.284Z,100.00
2023-03-04T00:10:06.459Z,100.00
2023-03-04T00:12:37.423Z,100.00
2023-03-04T00:15:06.417Z,100.00
2023-03-04T00:17:34.642Z,100.00
2023-03-04T00:20:02.898Z,100.00
2023-03-04T00:22:31.552Z,100.00
2023-03-04T00:24:59.786Z,100.00
2023-03-04T00:27:28.157Z,100.00
2023-03-04T00:29:56.567Z,100.00
2023-03-04T00:32:25.375Z,100.00
2023-03-04T00:34:54.009Z,100.00
2023-03-04T00:37:22.675Z,100.00
2023-03-04T00:39:51.694Z,100.00
2023-03-04T00:42:23.081Z,100.00
2023-03-04T00:44:52.302Z,100.00
2023-03-04T00:47:20.505Z,100.00
2023-03-04T00:49:49.181Z,100.00
2023-03-04T00:52:17.362Z,100.00
2023-03-04T00:54:46.850Z,100.00
2023-03-04T00:57:15.566Z,100.00
2023-03-04T00:59:44.195Z,100.00
2023-03-04T01:02:12.562Z,100.00
2023-03-04T01:04:43.180Z,100.00
2023-03-04T01:07:12.692Z,100.00
2023-03-04T01:09:45.403Z,100.00
2023-03-04T01:12:14.868Z,100.00
2023-03-04T01:14:43.325Z,100.00
2023-03-04T01:17:17.563Z,100.00
2023-03-04T01:19:45.819Z,100.00
2023-03-04T01:22:15.340Z,100.00
2023-03-04T01:24:44.814Z,100.00
2023-03-04T01:27:13.123Z,100.00
2023-03-04T01:29:45.515Z,100.00
2023-03-04T01:32:13.783Z,100.00
2023-03-04T01:34:43.850Z,100.00
2023-03-04T01:37:14.204Z,100.00
2023-03-04T01:39:42.448Z,100.00
2023-03-04T01:42:17.376Z,100.00
2023-03-04T01:44:45.723Z,100.00
2023-03-04T01:47:19.018Z,100.00
2023-03-04T01:49:48.322Z,100.00
2023-03-04T01:52:17.319Z,100.00
2023-03-04T01:54:45.671Z,100.00
2023-03-04T01:57:17.733Z,100.00
2023-03-04T01:59:46.097Z,100.00
2023-03-04T02:02:14.338Z,100.00
2023-03-04T02:04:44.087Z,100.00
2023-03-04T02:07:12.384Z,100.00
2023-03-04T02:09:40.661Z,100.00
2023-03-04T02:12:09.004Z,100.00
2023-03-04T02:14:38.884Z,100.00
2023-03-04T02:17:14.012Z,100.00
2023-03-04T02:19:48.920Z,100.00
2023-03-04T02:22:17.409Z,100.00
2023-03-04T02:25:05.913Z,100.00
2023-03-04T02:27:34.495Z,100.00
2023-03-04T02:30:05.242Z,100.00
2023-03-04T02:32:33.627Z,100.00
2023-03-04T02:35:04.605Z,100.00
2023-03-04T02:37:32.973Z,100.00
2023-03-04T02:40:01.271Z,100.00
2023-03-04T02:42:29.693Z,100.00
2023-03-04T02:45:02.109Z,100.00
2023-03-04T02:47:30.692Z,100.00
2023-03-04T02:49:59.226Z,100.00
2023-03-04T02:52:32.269Z,100.00
2023-03-04T02:55:02.138Z,100.00
2023-03-04T02:57:30.667Z,100.00
2023-03-04T02:59:58.884Z,100.00
2023-03-04T03:02:29.212Z,100.00
2023-03-04T03:04:58.349Z,100.00
2023-03-04T03:07:29.066Z,100.00
2023-03-04T03:09:57.467Z,100.00
2023-03-04T03:12:26.975Z,100.00
2023-03-04T03:14:55.183Z,100.00
2023-03-04T03:17:24.228Z,100.00
2023-03-04T03:19:52.853Z,100.00
2023-03-04T03:22:24.362Z,100.00
2023-03-04T03:24:52.593Z,100.00
2023-03-04T03:27:20.806Z,100.00
2023-03-04T03:29:49.218Z,100.00
2023-03-04T03:32:17.963Z,100.00
2023-03-04T03:34:47.211Z,100.00
2023-03-04T03:37:15.671Z,100.00
2023-03-04T03:39:44.016Z,100.00
2023-03-04T03:42:13.125Z,100.00
2023-03-04T03:44:41.363Z,100.00
2023-03-04T03:47:09.867Z,100.00
2023-03-04T03:49:38.316Z,100.00
2023-03-04T03:52:08.576Z,100.00
2023-03-04T03:54:37.644Z,100.00
2023-03-04T03:57:06.779Z,100.00
2023-03-04T03:59:36.279Z,100.00
2023-03-04T04:02:04.518Z,100.00
2023-03-04T04:04:33.145Z,100.00
2023-03-04T04:07:01.347Z,100.00
2023-03-04T04:09:29.831Z,100.00
2023-03-04T04:11:58.358Z,100.00
2023-03-04T04:14:32.116Z,100.00
2023-03-04T04:17:00.484Z,100.00
2023-03-04T04:19:29.235Z,100.00
2023-03-04T04:21:58.045Z,100.00
2023-03-04T04:24:26.372Z,100.00
2023-03-04T04:27:01.640Z,100.00
2023-03-04T04:29:30.370Z,100.00
2023-03-04T04:31:58.860Z,100.00
2023-03-04T04:34:27.196Z,100.00
2023-03-04T04:36:55.693Z,100.00
2023-03-04T04:39:23.933Z,100.00
2023-03-04T04:41:52.100Z,100.00
2023-03-04T04:44:20.290Z,100.00
2023-03-04T04:46:48.925Z,100.00
2023-03-04T04:49:17.434Z,100.00
2023-03-04T04:51:45.663Z,100.00
2023-03-04T04:54:14.143Z,100.00
2023-03-04T04:56:42.578Z,100.00
2023-03-04T04:59:10.824Z,100.00
2023-03-04T05:01:39.480Z,100.00
2023-03-04T05:04:07.765Z,100.00
2023-03-04T05:06:36.060Z,100.00
2023-03-04T05:09:07.377Z,100.00
2023-03-04T05:11:36.378Z,99.78
2023-03-04T05:14:06.443Z,92.75
2023-03-04T05:16:35.281Z,84.61
2023-03-04T05:19:03.421Z,77.98
2023-03-04T05:21:31.781Z,72.85
2023-03-04T05:24:00.147Z,66.99
2023-03-04T05:26:29.136Z,63.17
2023-03-04T05:28:57.563Z,58.90
2023-03-04T05:31:26.046Z,56.03
2023-03-04T05:33:54.482Z,53.58
2023-03-04T05:36:22.701Z,50.63
2023-03-04T05:38:50.839Z,49.02
2023-03-04T05:41:22.995Z,48.79
2023-03-04T05:43:51.680Z,48.77
2023-03-04T05:46:25.905Z,47.36
2023-03-04T05:48:54.689Z,46.36
2023-03-04T05:51:23.084Z,44.84
2023-03-04T05:53:51.482Z,44.22
2023-03-04T05:56:20.041Z,43.99
2023-03-04T05:58:48.443Z,43.25
2023-03-04T06:01:19.007Z,42.48
2023-03-04T06:03:49.471Z,40.95
2023-03-04T06:06:17.739Z,40.82
2023-03-04T06:08:48.020Z,40.56
2023-03-04T06:11:16.405Z,40.18
2023-03-04T06:13:47.543Z,39.75
2023-03-04T06:16:18.698Z,39.83
2023-03-04T06:18:47.012Z,38.89
2023-03-04T06:21:15.341Z,38.48
2023-03-04T06:23:44.690Z,37.90
2023-03-04T06:26:15.858Z,37.72
2023-03-04T06:28:44.554Z,37.02
2023-03-04T06:31:12.929Z,36.92
2023-03-04T06:33:42.636Z,36.22
2023-03-04T06:36:10.882Z,35.32
2023-03-04T06:38:39.359Z,35.43
2023-03-04T06:41:10.938Z,35.39
2023-03-04T06:43:39.173Z,35.12
2023-03-04T06:46:07.746Z,35.59
2023-03-04T06:48:36.461Z,35.34
2023-03-04T06:51:08.317Z,34.39
2023-03-04T06:53:39.612Z,34.07
2023-03-04T06:56:16.401Z,34.00
2023-03-04T06:58:45.458Z,34.38
2023-03-04T07:01:14.273Z,34.65
2023-03-04T07:03:42.732Z,34.45
2023-03-04T07:06:14.262Z,34.30
2023-03-04T07:08:48.025Z,34.28
2023-03-04T07:11:16.773Z,34.70
2023-03-04T07:13:45.083Z,34.71
2023-03-04T07:16:14.323Z,35.00
2023-03-04T07:18:43.540Z,35.15
2023-03-04T07:21:17.319Z,34.56
2023-03-04T07:23:45.593Z,34.09
2023-03-04T07:26:14.072Z,33.62
2023-03-04T07:28:43.014Z,33.25
2023-03-04T07:31:12.934Z,33.01
2023-03-04T07:33:46.369Z,33.01
2023-03-04T07:36:19.980Z,32.96
2023-03-04T07:38:48.640Z,32.55
2023-03-04T07:41:17.286Z,32.36
2023-03-04T07:43:45.531Z,32.17
2023-03-04T07:46:13.845Z,32.08
2023-03-04T07:48:42.092Z,32.15
2023-03-04T07:51:17.094Z,32.43
2023-03-04T07:53:46.171Z,32.38
2023-03-04T07:56:15.190Z,32.63
2023-03-04T07:58:43.766Z,32.50
2023-03-04T08:01:12.612Z,32.59
2023-03-04T08:03:41.601Z,32.86
2023-03-04T08:06:10.974Z,32.41
2023-03-04T08:08:39.315Z,32.68
2023-03-04T08:11:08.316Z,32.90
2023-03-04T08:13:36.947Z,31.85
2023-03-04T08:16:10.893Z,31.96
2023-03-04T08:18:39.946Z,31.81
2023-03-04T08:21:09.119Z,31.54
2023-03-04T08:23:38.387Z,31.59
2023-03-04T08:26:10.436Z,31.92
2023-03-04T08:28:38.609Z,31.73
2023-03-04T08:31:06.953Z,31.94
2023-03-04T08:33:36.381Z,32.25
2023-03-04T08:36:04.691Z,31.90
2023-03-04T08:38:32.921Z,32.10
2023-03-04T08:41:01.598Z,32.21
2023-03-04T08:43:30.351Z,31.80
2023-03-04T08:45:59.028Z,30.89
2023-03-04T08:48:27.456Z,31.01
2023-03-04T08:50:55.846Z,31.66
2023-03-04T08:53:24.106Z,31.33
2023-03-04T08:55:52.897Z,31.28
2023-03-04T08:58:21.780Z,31.25
2023-03-04T09:00:51.696Z,31.69
2023-03-04T09:03:40.188Z,31.36
2023-03-04T09:06:08.649Z,31.83
2023-03-04T09:08:38.861Z,31.30
2023-03-04T09:11:10.779Z,30.51
2023-03-04T09:13:40.737Z,30.87
2023-03-04T09:16:11.441Z,30.80
2023-03-04T09:18:39.998Z,30.28
2023-03-04T09:21:09.721Z,30.68
2023-03-04T09:23:38.485Z,30.78
2023-03-04T09:26:16.928Z,31.19
2023-03-04T09:28:47.805Z,31.95
2023-03-04T09:31:16.315Z,32.09
2023-03-04T09:33:45.538Z,32.72
2023-03-04T09:36:14.483Z,33.24
2023-03-04T09:38:43.192Z,33.88
2023-03-04T09:41:25.867Z,33.97
2023-03-04T09:43:54.272Z,34.39
2023-03-04T09:46:49.138Z,35.07
2023-03-04T09:49:17.593Z,35.50
2023-03-04T09:51:47.856Z,35.98
2023-03-04T09:54:31.609Z,36.10
2023-03-04T09:57:14.476Z,36.28
2023-03-04T09:59:45.490Z,37.18
2023-03-04T10:02:16.656Z,38.85
2023-03-04T10:04:48.242Z,40.98
2023-03-04T10:07:23.151Z,42.64
2023-03-04T10:09:52.991Z,43.23
2023-03-04T10:12:22.313Z,43.00
2023-03-04T10:15:01.612Z,42.90
2023-03-04T10:17:30.224Z,42.87
2023-03-04T10:19:59.724Z,42.67
2023-03-04T10:22:47.085Z,42.34
2023-03-04T10:25:18.219Z,42.36
2023-03-04T10:27:54.522Z,41.94
2023-03-04T10:30:41.179Z,42.56
2023-03-04T10:33:15.011Z,43.70
2023-03-04T10:35:44.428Z,44.14
2023-03-04T10:38:19.322Z,44.61
2023-03-04T10:40:47.675Z,45.20
2023-03-04T10:43:16.720Z,45.42
2023-03-04T10:45:45.879Z,45.29
2023-03-04T10:48:22.007Z,45.00
2023-03-04T10:50:50.263Z,45.31
2023-03-04T10:53:27.228Z,45.82
2023-03-04T10:55:56.028Z,46.57
2023-03-04T10:58:24.547Z,46.73
2023-03-04T11:01:02.399Z,47.11
2023-03-04T11:03:32.137Z,47.88
2023-03-04T11:06:07.541Z,48.29
2023-03-04T11:08:40.080Z,48.78
2023-03-04T11:11:35.312Z,49.08
2023-03-04T11:14:10.051Z,49.11
2023-03-04T11:16:38.435Z,47.94
2023-03-04T11:19:11.317Z,47.35
2023-03-04T11:21:41.054Z,48.26
2023-03-04T11:24:28.121Z,47.57
2023-03-04T11:27:07.396Z,46.66
2023-03-04T11:29:42.206Z,45.35
2023-03-04T11:32:12.373Z,45.04
2023-03-04T11:35:00.211Z,46.40
2023-03-04T11:37:32.141Z,47.58
2023-03-04T11:40:13.478Z,48.59
2023-03-04T11:43:02.988Z,48.48
2023-03-04T11:46:08.132Z,48.83
2023-03-04T11:48:49.965Z,48.67
2023-03-04T11:51:21.294Z,47.84
2023-03-04T11:53:56.800Z,47.68
2023-03-04T11:56:27.417Z,48.01
2023-03-04T11:59:07.756Z,48.82
2023-03-04T12:01:38.963Z,48.70
2023-03-04T12:04:10.429Z,48.49
2023-03-04T12:06:39.111Z,48.96
2023-03-04T12:09:30.126Z,49.36
2023-03-04T12:12:17.386Z,49.80
2023-03-04T12:15:01.734Z,49.98
2023-03-04T12:17:50.659Z,50.49
2023-03-04T12:20:33.744Z,50.86
2023-03-04T12:23:19.348Z,51.14
2023-03-04T12:26:01.825Z,51.28
2023-03-04T12:28:34.107Z,51.76
2023-03-04T12:31:18.259Z,52.32
2023-03-04T12:34:28.009Z,53.04
2023-03-04T12:37:00.991Z,53.46
2023-03-04T12:39:34.085Z,53.19
2023-03-04T12:42:20.869Z,52.96
2023-03-04T12:45:01.169Z,53.04
2023-03-04T12:47:48.815Z,52.78
2023-03-04T12:50:20.092Z,52.61
2023-03-04T12:53:10.180Z,53.22
2023-03-04T12:55:39.513Z,53.24
2023-03-04T12:58:14.171Z,52.69
2023-03-04T13:00:42.526Z,52.48
2023-03-04T13:03:10.990Z,52.26
2023-03-04T13:06:11.948Z,52.15
2023-03-04T13:08:46.168Z,52.50
2023-03-04T13:11:28.542Z,52.54
2023-03-04T13:14:18.395Z,52.60
2023-03-04T13:16:54.168Z,53.24
2023-03-04T13:19:41.435Z,53.35
2023-03-04T13:22:30.863Z,52.62
2023-03-04T13:24:59.262Z,52.15
2023-03-04T13:27:50.239Z,52.08
2023-03-04T13:30:34.707Z,52.11
2023-03-04T13:33:10.609Z,51.99
2023-03-04T13:35:45.939Z,52.09
2023-03-04T13:38:43.932Z,52.16
2023-03-04T13:41:15.760Z,52.10
2023-03-04T13:43:48.471Z,52.15
2023-03-04T13:46:19.763Z,51.99
2023-03-04T13:48:50.807Z,52.06
2023-03-04T13:51:32.980Z,52.22
2023-03-04T13:54:03.087Z,52.41
2023-03-04T13:56:37.104Z,52.46
2023-03-04T13:59:09.578Z,52.54
2023-03-04T14:01:38.078Z,52.42
2023-03-04T14:04:15.669Z,52.16
2023-03-04T14:06:46.484Z,51.61
2023-03-04T14:09:20.917Z,51.45
2023-03-04T14:11:52.008Z,51.65
2023-03-04T14:14:21.368Z,51.29
2023-03-04T14:16:54.269Z,51.57
2023-03-04T14:19:27.094Z,52.00
2023-03-04T14:21:55.814Z,52.10
2023-03-04T14:24:24.137Z,52.24
2023-03-04T14:27:04.090Z,52.25
2023-03-04T14:29:32.393Z,52.25
2023-03-04T14:32:01.097Z,52.35
2023-03-04T14:34:38.261Z,52.44
2023-03-04T14:37:26.970Z,52.66
2023-03-04T14:39:56.529Z,52.80
2023-03-04T14:42:25.629Z,53.18
2023-03-04T14:44:53.937Z,53.42
2023-03-04T14:47:40.928Z,53.76
2023-03-04T14:50:16.264Z,53.97
2023-03-04T14:52:45.707Z,54.36
2023-03-04T14:55:16.749Z,54.20
2023-03-04T14:57:47.873Z,54.35
2023-03-04T15:00:26.268Z,54.76
2023-03-04T15:02:58.176Z,55.23
2023-03-04T15:05:33.509Z,55.34
2023-03-04T15:08:06.109Z,55.76
2023-03-04T15:10:36.337Z,56.20
2023-03-04T15:13:05.949Z,56.57
2023-03-04T15:15:44.840Z,57.10
2023-03-04T15:18:26.706Z,57.58
2023-03-04T15:21:02.484Z,57.87
2023-03-04T15:23:31.597Z,58.07
2023-03-04T15:26:00.882Z,58.40
2023-03-04T15:28:34.552Z,58.62
2023-03-04T15:31:03.894Z,58.66
2023-03-04T15:33:34.119Z,58.78
2023-03-04T15:36:02.785Z,58.91
2023-03-04T15:38:33.635Z,59.13
2023-03-04T15:41:02.173Z,59.63
2023-03-04T15:43:34.176Z,60.15
2023-03-04T15:46:02.407Z,60.87
2023-03-04T15:48:30.706Z,61.76
2023-03-04T15:50:59.853Z,62.61
2023-03-04T15:53:28.084Z,63.35
2023-03-04T15:55:57.651Z,64.10
2023-03-04T15:58:26.121Z,64.68
2023-03-04T16:00:54.459Z,65.22
2023-03-04T16:03:22.815Z,65.41
2023-03-04T16:05:51.384Z,65.93
2023-03-04T16:08:25.191Z,66.33
2023-03-04T16:10:54.284Z,66.66
2023-03-04T16:13:23.050Z,66.90
2023-03-04T16:15:51.909Z,67.31
2023-03-04T16:18:20.208Z,67.57
2023-03-04T16:20:48.669Z,67.75
2023-03-04T16:23:18.898Z,67.87
2023-03-04T16:25:47.714Z,68.01
2023-03-04T16:28:16.620Z,68.16
2023-03-04T16:30:45.257Z,68.32
2023-03-04T16:33:15.312Z,68.44
2023-03-04T16:35:46.949Z,68.70
2023-03-04T16:38:27.254Z,69.05
2023-03-04T16:40:59.694Z,69.26
2023-03-04T16:43:28.103Z,69.75
2023-03-04T16:45:56.426Z,70.13
2023-03-04T16:48:26.270Z,70.32
2023-03-04T16:50:54.545Z,70.54
2023-03-04T16:53:35.143Z,70.88
2023-03-04T16:56:07.333Z,71.05
2023-03-04T16:58:37.529Z,71.69
2023-03-04T17:01:06.115Z,72.23
2023-03-04T17:03:34.493Z,72.64
2023-03-04T17:06:02.922Z,73.20
2023-03-04T17:08:31.437Z,73.77
2023-03-04T17:10:59.617Z,74.24
2023-03-04T17:13:29.752Z,74.81
2023-03-04T17:16:02.645Z,75.41
2023-03-04T17:18:31.740Z,75.63
2023-03-04T17:21:04.153Z,75.94
2023-03-04T17:23:33.137Z,76.40
2023-03-04T17:26:02.076Z,76.76
2023-03-04T17:28:32.862Z,77.11
2023-03-04T17:31:01.857Z,77.40
2023-03-04T17:33:33.115Z,77.83
2023-03-04T17:36:01.546Z,78.50
2023-03-04T17:38:31.521Z,78.92
2023-03-04T17:41:03.643Z,79.49
2023-03-04T17:43:31.894Z,79.99
2023-03-04T17:46:07.325Z,80.28
2023-03-04T17:48:35.590Z,81.16
2023-03-04T17:51:05.392Z,81.62
2023-03-04T17:53:33.835Z,82.28
2023-03-04T17:56:02.866Z,83.02
2023-03-04T17:58:31.618Z,84.21
2023-03-04T18:01:00.819Z,85.10
2023-03-04T18:03:29.849Z,86.54
2023-03-04T18:05:58.240Z,87.49
2023-03-04T18:08:28.657Z,88.67
2023-03-04T18:10:57.841Z,89.94
2023-03-04T18:13:26.268Z,91.11
2023-03-04T18:15:59.122Z,92.54
2023-03-04T18:18:27.607Z,93.70
2023-03-04T18:20:59.324Z,94.95
2023-03-04T18:23:28.247Z,96.27
2023-03-04T18:25:57.305Z,97.28
2023-03-04T18:28:25.938Z,97.78
2023-03-04T18:30:54.264Z,98.27
2023-03-04T18:33:25.372Z,99.45
2023-03-04T18:36:00.835Z,100.00
2023-03-04T18:38:29.304Z,100.00
2023-03-04T18:40:58.614Z,100.00
2023-03-04T18:43:27.347Z,100.00
2023-03-04T18:46:02.546Z,100.00
2023-03-04T18:48:31.492Z,100.00
2023-03-04T18:51:02.279Z,100.00
2023-03-04T18:53:31.091Z,100.00
2023-03-04T18:56:03.257Z,100.00
2023-03-04T18:58:31.934Z,100.00
2023-03-04T19:01:00.343Z,100.00
2023-03-04T19:03:28.523Z,100.00
2023-03-04T19:05:57.120Z,100.00
2023-03-04T19:08:33.441Z,100.00
2023-03-04T19:11:01.763Z,100.00
2023-03-04T19:13:32.818Z,100.00
2023-03-04T19:16:01.144Z,100.00
2023-03-04T19:18:29.483Z,100.00
2023-03-04T19:21:00.822Z,100.00
2023-03-04T19:23:29.885Z,100.00
2023-03-04T19:25:58.159Z,100.00
2023-03-04T19:28:26.647Z,100.00
2023-03-04T19:30:59.173Z,100.00
2023-03-04T19:33:30.275Z,100.00
2023-03-04T19:35:58.614Z,100.00
2023-03-04T19:38:26.835Z,100.00
2023-03-04T19:40:55.180Z,100.00
2023-03-04T19:43:23.359Z,100.00
2023-03-04T19:45:55.518Z,100.00
2023-03-04T19:48:23.790Z,100.00
2023-03-04T19:50:52.245Z,100.00
2023-03-04T19:53:20.522Z,100.00
2023-03-04T19:55:49.465Z,100.00
2023-03-04T19:58:18.083Z,100.00
2023-03-04T20:00:46.382Z,100.00
2023-03-04T20:03:14.899Z,100.00
2023-03-04T20:05:43.372Z,100.00
2023-03-04T20:08:11.708Z,100.00
2023-03-04T20:10:41.395Z,100.00
2023-03-04T20:13:10.255Z,100.00
2023-03-04T20:15:41.906Z,100.00
2023-03-04T20:18:10.547Z,100.00
2023-03-04T20:20:41.214Z,100.00
2023-03-04T20:23:10.855Z,100.00
2023-03-04T20:25:39.597Z,100.00
2023-03-04T20:28:07.864Z,100.00
2023-03-04T20:30:36.581Z,100.00
2023-03-04T20:33:05.752Z,100.00
2023-03-04T20:35:34.135Z,100.00
2023-03-04T20:38:05.318Z,100.00
2023-03-04T20:40:35.976Z,100.00
2023-03-04T20:43:05.783Z,100.00
2023-03-04T20:45:38.935Z,100.00
2023-03-04T20:48:07.311Z,100.00
2023-03-04T20:50:35.801Z,100.00
2023-03-04T20:53:04.158Z,100.00
2023-03-04T20:55:32.346Z,100.00
2023-03-04T20:58:00.843Z,100.00
2023-03-04T21:00:30.795Z,100.00
2023-03-04T21:02:59.398Z,100.00
2023-03-04T21:05:28.120Z,100.00
2023-03-04T21:08:01.840Z,100.00
2023-03-04T21:10:30.667Z,100.00
2023-03-04T21:12:59.143Z,100.00
2023-03-04T21:15:29.959Z,100.00
2023-03-04T21:17:58.298Z,100.00
2023-03-04T21:20:26.606Z,100.00
2023-03-04T21:22:55.468Z,100.00
2023-03-04T21:25:23.732Z,100.00
2023-03-04T21:27:55.261Z,100.00
2023-03-04T21:30:23.978Z,100.00
2023-03-04T21:32:52.252Z,100.00
2023-03-04T21:35:21.042Z,100.00
2023-03-04T21:37:49.346Z,100.00
2023-03-04T21:40:17.928Z,100.00
2023-03-04T21:42:46.726Z,100.00
2023-03-04T21:45:19.405Z,100.00
2023-03-04T21:47:49.439Z,100.00
2023-03-04T21:50:17.590Z,100.00
2023-03-04T21:52:47.771Z,100.00
2023-03-04T21:55:16.000Z,100.00
2023-03-04T21:57:44.345Z,100.00
2023-03-04T22:00:14.560Z,100.00
2023-03-04T22:02:42.948Z,100.00
2023-03-04T22:05:11.485Z,100.00
2023-03-04T22:07:39.891Z,100.00
2023-03-04T22:10:08.269Z,100.00
2023-03-04T22:12:36.581Z,100.00
2023-03-04T22:15:05.415Z,100.00
2023-03-04T22:17:34.009Z,100.00
2023-03-04T22:20:02.896Z,100.00
2023-03-04T22:22:36.132Z,100.00
2023-03-04T22:25:04.873Z,100.00
2023-03-04T22:27:33.279Z,100.00
2023-03-04T22:30:01.894Z,100.00
2023-03-04T22:32:30.341Z,100.00
2023-03-04T22:34:58.643Z,100.00
2023-03-04T22:37:26.852Z,100.00
2023-03-04T22:39:55.451Z,100.00
2023-03-04T22:42:24.153Z,100.00
2023-03-04T22:44:54.469Z,100.00
2023-03-04T22:47:22.961Z,100.00
2023-03-04T22:49:51.633Z,100.00
2023-03-04T22:52:21.187Z,100.00
2023-03-04T22:54:50.452Z,100.00
2023-03-04T22:57:18.758Z,100.00
2023-03-04T22:59:47.085Z,100.00
2023-03-04T23:02:18.650Z,100.00
2023-03-04T23:04:47.841Z,100.00
2023-03-04T23:07:16.174Z,100.00
2023-03-04T23:09:44.562Z,100.00
2023-03-04T23:12:13.051Z,100.00
2023-03-04T23:14:43.687Z,100.00
2023-03-04T23:17:12.164Z,100.00
2023-03-04T23:19:40.902Z,100.00
2023-03-04T23:22:11.079Z,100.00
2023-03-04T23:24:42.333Z,100.00
2023-03-04T23:27:10.584Z,100.00
2023-03-04T23:29:39.150Z,100.00
2023-03-04T23:32:08.401Z,100.00
2023-03-04T23:34:36.866Z,100.00
2023-03-04T23:37:05.236Z,100.00
2023-03-04T23:39:33.527Z,100.00
2023-03-04T23:42:01.808Z,100.00
2023-03-04T23:44:30.754Z,100.00
2023-03-04T23:46:59.148Z,100.00
2023-03-04T23:49:27.756Z,100.00
2023-03-04T23:52:00.344Z,100.00
2023-03-04T23:54:28.911Z,100.00
2023-03-04T23:56:57.305Z,100.00
2023-03-04T23:59:26.978Z,100.00
